sensor_id;sensor_type;location;lat;lon;timestamp;P1;durP1;ratioP1;P2;durP2;ratioP2
77350;SDS011;66420;50.246;14.320;2023-07-24T00:00:38;6.85;;;2.83;;
77350;SDS011;66420;50.246;14.320;2023-07-24T00:03:24;7.13;;;3.05;;
77350;SDS011;66420;50.246;14.320;2023-07-24T00:06:08;5.47;;;2.88;;
77350;SDS011;66420;50.246;14.320;2023-07-24T00:08:53;7.20;;;3.05;;
77350;SDS011;66420;50.246;14.320;2023-07-24T00:11:38;6.05;;;3.10;;
77350;SDS011;66420;50.246;14.320;2023-07-24T00:14:22;5.32;;;3.03;;
77350;SDS011;66420;50.246;14.320;2023-07-24T00:17:07;5.72;;;3.20;;
77350;SDS011;66420;50.246;14.320;2023-07-24T00:19:52;5.32;;;2.92;;
77350;SDS011;66420;50.246;14.320;2023-07-24T00:22:37;4.80;;;2.55;;
77350;SDS011;66420;50.246;14.320;2023-07-24T00:25:21;5.50;;;2.83;;
77350;SDS011;66420;50.246;14.320;2023-07-24T00:28:06;4.70;;;2.63;;
77350;SDS011;66420;50.246;14.320;2023-07-24T00:30:51;5.85;;;2.90;;
77350;SDS011;66420;50.246;14.320;2023-07-24T00:33:35;5.38;;;2.88;;
77350;SDS011;66420;50.246;14.320;2023-07-24T00:36:20;4.85;;;2.78;;
77350;SDS011;66420;50.246;14.320;2023-07-24T00:39:04;5.80;;;3.00;;
77350;SDS011;66420;50.246;14.320;2023-07-24T00:41:49;5.03;;;2.80;;
77350;SDS011;66420;50.246;14.320;2023-07-24T00:44:33;5.18;;;2.88;;
77350;SDS011;66420;50.246;14.320;2023-07-24T00:47:18;5.70;;;3.03;;
77350;SDS011;66420;50.246;14.320;2023-07-24T00:50:03;5.32;;;2.83;;
77350;SDS011;66420;50.246;14.320;2023-07-24T00:52:48;6.28;;;3.08;;
77350;SDS011;66420;50.246;14.320;2023-07-24T00:55:33;4.35;;;2.58;;
77350;SDS011;66420;50.246;14.320;2023-07-24T00:58:18;5.38;;;2.90;;
77350;SDS011;66420;50.246;14.320;2023-07-24T01:01:04;5.38;;;3.08;;
77350;SDS011;66420;50.246;14.320;2023-07-24T01:03:49;6.55;;;2.83;;
77350;SDS011;66420;50.246;14.320;2023-07-24T01:06:34;5.97;;;3.22;;
77350;SDS011;66420;50.246;14.320;2023-07-24T01:09:18;5.68;;;3.03;;
77350;SDS011;66420;50.246;14.320;2023-07-24T01:12:08;5.32;;;3.08;;
77350;SDS011;66420;50.246;14.320;2023-07-24T01:15:22;4.65;;;2.75;;
77350;SDS011;66420;50.246;14.320;2023-07-24T01:18:13;5.15;;;2.97;;
77350;SDS011;66420;50.246;14.320;2023-07-24T01:21:01;6.22;;;2.92;;
77350;SDS011;66420;50.246;14.320;2023-07-24T01:23:59;5.05;;;2.90;;
77350;SDS011;66420;50.246;14.320;2023-07-24T01:27:07;6.90;;;2.88;;
77350;SDS011;66420;50.246;14.320;2023-07-24T01:29:51;6.35;;;3.25;;
77350;SDS011;66420;50.246;14.320;2023-07-24T01:32:37;5.88;;;3.22;;
77350;SDS011;66420;50.246;14.320;2023-07-24T01:35:22;6.22;;;3.05;;
77350;SDS011;66420;50.246;14.320;2023-07-24T01:38:07;6.32;;;2.88;;
77350;SDS011;66420;50.246;14.320;2023-07-24T01:40:55;5.47;;;2.92;;
77350;SDS011;66420;50.246;14.320;2023-07-24T01:43:41;4.13;;;2.55;;
77350;SDS011;66420;50.246;14.320;2023-07-24T01:46:27;4.95;;;2.80;;
77350;SDS011;66420;50.246;14.320;2023-07-24T01:49:12;4.82;;;2.65;;
77350;SDS011;66420;50.246;14.320;2023-07-24T01:51:56;5.43;;;2.92;;
77350;SDS011;66420;50.246;14.320;2023-07-24T01:54:42;5.20;;;2.90;;
77350;SDS011;66420;50.246;14.320;2023-07-24T01:57:26;5.53;;;2.80;;
77350;SDS011;66420;50.246;14.320;2023-07-24T02:00:11;6.65;;;2.95;;
77350;SDS011;66420;50.246;14.320;2023-07-24T02:02:56;5.07;;;2.80;;
77350;SDS011;66420;50.246;14.320;2023-07-24T02:05:40;4.78;;;2.58;;
77350;SDS011;66420;50.246;14.320;2023-07-24T02:08:26;5.20;;;2.90;;
77350;SDS011;66420;50.246;14.320;2023-07-24T02:11:10;7.50;;;3.20;;
77350;SDS011;66420;50.246;14.320;2023-07-24T02:13:55;6.38;;;3.20;;
77350;SDS011;66420;50.246;14.320;2023-07-24T02:16:39;5.82;;;2.90;;
77350;SDS011;66420;50.246;14.320;2023-07-24T02:19:23;5.70;;;3.03;;
77350;SDS011;66420;50.246;14.320;2023-07-24T02:22:08;7.00;;;3.03;;
77350;SDS011;66420;50.246;14.320;2023-07-24T02:24:52;5.78;;;3.08;;
77350;SDS011;66420;50.246;14.320;2023-07-24T02:27:37;6.50;;;3.38;;
77350;SDS011;66420;50.246;14.320;2023-07-24T02:30:22;4.70;;;2.72;;
77350;SDS011;66420;50.246;14.320;2023-07-24T02:33:07;6.70;;;3.05;;
77350;SDS011;66420;50.246;14.320;2023-07-24T02:35:52;6.32;;;3.08;;
77350;SDS011;66420;50.246;14.320;2023-07-24T02:38:37;5.88;;;3.13;;
77350;SDS011;66420;50.246;14.320;2023-07-24T02:41:21;5.80;;;2.80;;
77350;SDS011;66420;50.246;14.320;2023-07-24T02:44:06;7.93;;;3.08;;
77350;SDS011;66420;50.246;14.320;2023-07-24T02:46:50;6.20;;;2.80;;
77350;SDS011;66420;50.246;14.320;2023-07-24T02:49:35;6.65;;;3.25;;
77350;SDS011;66420;50.246;14.320;2023-07-24T02:52:20;5.53;;;3.15;;
77350;SDS011;66420;50.246;14.320;2023-07-24T02:55:05;5.97;;;3.00;;
77350;SDS011;66420;50.246;14.320;2023-07-24T02:57:50;5.57;;;2.85;;
77350;SDS011;66420;50.246;14.320;2023-07-24T03:00:35;5.72;;;2.90;;
77350;SDS011;66420;50.246;14.320;2023-07-24T03:03:19;6.80;;;2.72;;
77350;SDS011;66420;50.246;14.320;2023-07-24T03:06:04;7.55;;;3.17;;
77350;SDS011;66420;50.246;14.320;2023-07-24T03:08:49;5.75;;;3.00;;
77350;SDS011;66420;50.246;14.320;2023-07-24T03:11:33;7.97;;;2.83;;
77350;SDS011;66420;50.246;14.320;2023-07-24T03:14:18;8.18;;;3.15;;
77350;SDS011;66420;50.246;14.320;2023-07-24T03:17:03;4.65;;;2.50;;
77350;SDS011;66420;50.246;14.320;2023-07-24T03:19:48;5.90;;;3.03;;
77350;SDS011;66420;50.246;14.320;2023-07-24T03:22:33;5.88;;;3.25;;
77350;SDS011;66420;50.246;14.320;2023-07-24T03:25:18;5.55;;;2.65;;
77350;SDS011;66420;50.246;14.320;2023-07-24T03:28:03;7.35;;;3.45;;
77350;SDS011;66420;50.246;14.320;2023-07-24T03:30:48;6.38;;;3.13;;
77350;SDS011;66420;50.246;14.320;2023-07-24T03:33:33;6.25;;;3.08;;
77350;SDS011;66420;50.246;14.320;2023-07-24T03:36:17;5.65;;;3.20;;
77350;SDS011;66420;50.246;14.320;2023-07-24T03:39:02;5.80;;;3.05;;
77350;SDS011;66420;50.246;14.320;2023-07-24T03:41:47;5.85;;;2.97;;
77350;SDS011;66420;50.246;14.320;2023-07-24T03:44:32;6.38;;;3.10;;
77350;SDS011;66420;50.246;14.320;2023-07-24T03:47:16;5.68;;;3.13;;
77350;SDS011;66420;50.246;14.320;2023-07-24T03:50:01;6.57;;;3.03;;
77350;SDS011;66420;50.246;14.320;2023-07-24T03:52:45;7.25;;;3.60;;
77350;SDS011;66420;50.246;14.320;2023-07-24T03:55:30;5.88;;;3.20;;
77350;SDS011;66420;50.246;14.320;2023-07-24T03:58:15;7.25;;;3.72;;
77350;SDS011;66420;50.246;14.320;2023-07-24T04:00:59;8.38;;;3.72;;
77350;SDS011;66420;50.246;14.320;2023-07-24T04:03:44;10.60;;;4.20;;
77350;SDS011;66420;50.246;14.320;2023-07-24T04:06:29;10.13;;;3.47;;
77350;SDS011;66420;50.246;14.320;2023-07-24T04:09:13;10.52;;;3.90;;
77350;SDS011;66420;50.246;14.320;2023-07-24T04:12:00;7.15;;;3.42;;
77350;SDS011;66420;50.246;14.320;2023-07-24T04:14:45;7.65;;;4.00;;
77350;SDS011;66420;50.246;14.320;2023-07-24T04:17:29;7.47;;;3.47;;
77350;SDS011;66420;50.246;14.320;2023-07-24T04:20:14;8.82;;;3.60;;
77350;SDS011;66420;50.246;14.320;2023-07-24T04:22:59;6.85;;;3.47;;
77350;SDS011;66420;50.246;14.320;2023-07-24T04:25:44;6.40;;;3.47;;
77350;SDS011;66420;50.246;14.320;2023-07-24T04:28:28;7.97;;;3.80;;
77350;SDS011;66420;50.246;14.320;2023-07-24T04:31:13;8.07;;;3.65;;
77350;SDS011;66420;50.246;14.320;2023-07-24T04:33:57;6.88;;;3.60;;
77350;SDS011;66420;50.246;14.320;2023-07-24T04:36:42;8.07;;;4.13;;
77350;SDS011;66420;50.246;14.320;2023-07-24T04:39:26;5.60;;;3.25;;
77350;SDS011;66420;50.246;14.320;2023-07-24T04:42:11;7.32;;;3.70;;
77350;SDS011;66420;50.246;14.320;2023-07-24T04:44:56;6.90;;;3.60;;
77350;SDS011;66420;50.246;14.320;2023-07-24T04:47:41;6.75;;;3.53;;
77350;SDS011;66420;50.246;14.320;2023-07-24T04:50:26;7.47;;;3.67;;
77350;SDS011;66420;50.246;14.320;2023-07-24T04:53:10;9.50;;;4.03;;
77350;SDS011;66420;50.246;14.320;2023-07-24T04:55:55;6.55;;;3.40;;
77350;SDS011;66420;50.246;14.320;2023-07-24T04:58:40;8.57;;;3.75;;
77350;SDS011;66420;50.246;14.320;2023-07-24T05:01:24;6.88;;;3.58;;
77350;SDS011;66420;50.246;14.320;2023-07-24T05:04:09;7.55;;;3.70;;
77350;SDS011;66420;50.246;14.320;2023-07-24T05:06:53;9.40;;;3.97;;
77350;SDS011;66420;50.246;14.320;2023-07-24T05:09:38;8.55;;;3.58;;
77350;SDS011;66420;50.246;14.320;2023-07-24T05:12:23;7.20;;;3.53;;
77350;SDS011;66420;50.246;14.320;2023-07-24T05:15:07;6.50;;;3.63;;
77350;SDS011;66420;50.246;14.320;2023-07-24T05:17:52;7.78;;;3.50;;
77350;SDS011;66420;50.246;14.320;2023-07-24T05:20:37;7.80;;;3.72;;
77350;SDS011;66420;50.246;14.320;2023-07-24T05:23:22;6.63;;;3.55;;
77350;SDS011;66420;50.246;14.320;2023-07-24T05:26:07;7.90;;;3.80;;
77350;SDS011;66420;50.246;14.320;2023-07-24T05:28:52;7.45;;;3.25;;
77350;SDS011;66420;50.246;14.320;2023-07-24T05:31:37;5.85;;;3.35;;
77350;SDS011;66420;50.246;14.320;2023-07-24T05:34:21;7.10;;;3.13;;
77350;SDS011;66420;50.246;14.320;2023-07-24T05:37:06;6.88;;;3.50;;
77350;SDS011;66420;50.246;14.320;2023-07-24T05:39:51;8.13;;;3.88;;
77350;SDS011;66420;50.246;14.320;2023-07-24T05:42:35;6.78;;;3.67;;
77350;SDS011;66420;50.246;14.320;2023-07-24T05:45:26;6.15;;;3.30;;
77350;SDS011;66420;50.246;14.320;2023-07-24T05:48:11;8.38;;;3.50;;
77350;SDS011;66420;50.246;14.320;2023-07-24T05:50:56;8.07;;;3.72;;
77350;SDS011;66420;50.246;14.320;2023-07-24T05:53:40;7.45;;;3.28;;
77350;SDS011;66420;50.246;14.320;2023-07-24T05:56:25;8.07;;;3.70;;
77350;SDS011;66420;50.246;14.320;2023-07-24T05:59:10;9.30;;;3.38;;
77350;SDS011;66420;50.246;14.320;2023-07-24T06:01:54;7.28;;;4.10;;
77350;SDS011;66420;50.246;14.320;2023-07-24T06:04:39;9.52;;;3.75;;
77350;SDS011;66420;50.246;14.320;2023-07-24T06:07:23;8.35;;;4.13;;
77350;SDS011;66420;50.246;14.320;2023-07-24T06:10:08;7.15;;;3.70;;
77350;SDS011;66420;50.246;14.320;2023-07-24T06:12:53;9.43;;;4.03;;
77350;SDS011;66420;50.246;14.320;2023-07-24T06:15:37;8.43;;;4.10;;
77350;SDS011;66420;50.246;14.320;2023-07-24T06:18:22;10.55;;;4.47;;
77350;SDS011;66420;50.246;14.320;2023-07-24T06:21:06;8.88;;;4.65;;
77350;SDS011;66420;50.246;14.320;2023-07-24T06:23:51;9.85;;;4.72;;
77350;SDS011;66420;50.246;14.320;2023-07-24T06:26:35;8.27;;;4.20;;
77350;SDS011;66420;50.246;14.320;2023-07-24T06:29:20;9.13;;;4.40;;
77350;SDS011;66420;50.246;14.320;2023-07-24T06:32:06;10.43;;;4.63;;
77350;SDS011;66420;50.246;14.320;2023-07-24T06:34:51;8.93;;;4.38;;
77350;SDS011;66420;50.246;14.320;2023-07-24T06:37:36;10.13;;;5.03;;
77350;SDS011;66420;50.246;14.320;2023-07-24T06:40:20;10.30;;;4.82;;
77350;SDS011;66420;50.246;14.320;2023-07-24T06:43:04;11.50;;;5.07;;
77350;SDS011;66420;50.246;14.320;2023-07-24T06:45:49;11.15;;;4.85;;
77350;SDS011;66420;50.246;14.320;2023-07-24T06:48:34;10.93;;;4.85;;
77350;SDS011;66420;50.246;14.320;2023-07-24T06:51:18;9.50;;;4.68;;
77350;SDS011;66420;50.246;14.320;2023-07-24T06:54:03;10.80;;;4.78;;
77350;SDS011;66420;50.246;14.320;2023-07-24T06:56:48;8.98;;;4.95;;
77350;SDS011;66420;50.246;14.320;2023-07-24T06:59:32;17.38;;;5.25;;
77350;SDS011;66420;50.246;14.320;2023-07-24T07:02:17;12.60;;;5.55;;
77350;SDS011;66420;50.246;14.320;2023-07-24T07:05:03;10.40;;;4.95;;
77350;SDS011;66420;50.246;14.320;2023-07-24T07:07:47;10.02;;;4.75;;
77350;SDS011;66420;50.246;14.320;2023-07-24T07:10:32;12.55;;;5.05;;
77350;SDS011;66420;50.246;14.320;2023-07-24T07:13:16;9.35;;;4.70;;
77350;SDS011;66420;50.246;14.320;2023-07-24T07:16:01;10.15;;;5.55;;
77350;SDS011;66420;50.246;14.320;2023-07-24T07:18:46;10.13;;;5.18;;
77350;SDS011;66420;50.246;14.320;2023-07-24T07:21:30;10.57;;;5.05;;
77350;SDS011;66420;50.246;14.320;2023-07-24T07:24:15;10.93;;;5.18;;
77350;SDS011;66420;50.246;14.320;2023-07-24T07:27:00;11.55;;;6.05;;
77350;SDS011;66420;50.246;14.320;2023-07-24T07:29:45;14.05;;;5.63;;
77350;SDS011;66420;50.246;14.320;2023-07-24T07:32:29;14.35;;;5.70;;
77350;SDS011;66420;50.246;14.320;2023-07-24T07:35:14;12.38;;;5.07;;
77350;SDS011;66420;50.246;14.320;2023-07-24T07:38:00;8.55;;;4.78;;
77350;SDS011;66420;50.246;14.320;2023-07-24T07:40:45;11.18;;;5.32;;
77350;SDS011;66420;50.246;14.320;2023-07-24T07:43:30;12.02;;;5.00;;
77350;SDS011;66420;50.246;14.320;2023-07-24T07:46:15;9.93;;;5.25;;
77350;SDS011;66420;50.246;14.320;2023-07-24T07:49:00;9.60;;;5.20;;
77350;SDS011;66420;50.246;14.320;2023-07-24T07:51:44;8.95;;;4.90;;
77350;SDS011;66420;50.246;14.320;2023-07-24T07:54:30;10.13;;;4.90;;
77350;SDS011;66420;50.246;14.320;2023-07-24T07:57:15;10.65;;;4.80;;
77350;SDS011;66420;50.246;14.320;2023-07-24T08:00:00;11.02;;;4.88;;
77350;SDS011;66420;50.246;14.320;2023-07-24T08:02:44;10.50;;;4.75;;
77350;SDS011;66420;50.246;14.320;2023-07-24T08:05:30;9.80;;;4.82;;
77350;SDS011;66420;50.246;14.320;2023-07-24T08:08:16;8.27;;;4.90;;
77350;SDS011;66420;50.246;14.320;2023-07-24T08:11:04;9.13;;;5.00;;
77350;SDS011;66420;50.246;14.320;2023-07-24T08:13:50;8.95;;;4.90;;
77350;SDS011;66420;50.246;14.320;2023-07-24T08:16:35;10.95;;;5.28;;
77350;SDS011;66420;50.246;14.320;2023-07-24T08:19:19;8.63;;;4.97;;
77350;SDS011;66420;50.246;14.320;2023-07-24T08:22:04;11.27;;;5.00;;
77350;SDS011;66420;50.246;14.320;2023-07-24T08:24:49;8.88;;;4.60;;
77350;SDS011;66420;50.246;14.320;2023-07-24T08:27:35;9.57;;;5.00;;
77350;SDS011;66420;50.246;14.320;2023-07-24T08:30:19;9.70;;;4.57;;
77350;SDS011;66420;50.246;14.320;2023-07-24T08:33:04;9.50;;;4.85;;
77350;SDS011;66420;50.246;14.320;2023-07-24T08:36:03;9.13;;;4.97;;
77350;SDS011;66420;50.246;14.320;2023-07-24T08:38:48;9.10;;;5.00;;
77350;SDS011;66420;50.246;14.320;2023-07-24T08:41:33;12.95;;;5.03;;
77350;SDS011;66420;50.246;14.320;2023-07-24T08:44:19;9.40;;;5.03;;
77350;SDS011;66420;50.246;14.320;2023-07-24T08:47:06;10.63;;;5.10;;
77350;SDS011;66420;50.246;14.320;2023-07-24T08:49:55;10.93;;;5.10;;
77350;SDS011;66420;50.246;14.320;2023-07-24T08:52:40;11.07;;;5.50;;
77350;SDS011;66420;50.246;14.320;2023-07-24T08:55:26;11.38;;;5.43;;
77350;SDS011;66420;50.246;14.320;2023-07-24T08:58:12;9.32;;;5.03;;
77350;SDS011;66420;50.246;14.320;2023-07-24T09:00:57;11.98;;;5.65;;
77350;SDS011;66420;50.246;14.320;2023-07-24T09:03:42;10.50;;;5.30;;
77350;SDS011;66420;50.246;14.320;2023-07-24T09:06:27;12.85;;;5.90;;
77350;SDS011;66420;50.246;14.320;2023-07-24T09:09:14;10.70;;;4.97;;
77350;SDS011;66420;50.246;14.320;2023-07-24T09:12:00;13.77;;;4.93;;
77350;SDS011;66420;50.246;14.320;2023-07-24T09:14:45;10.05;;;5.10;;
77350;SDS011;66420;50.246;14.320;2023-07-24T09:17:29;8.18;;;4.78;;
77350;SDS011;66420;50.246;14.320;2023-07-24T09:20:14;11.05;;;5.57;;
77350;SDS011;66420;50.246;14.320;2023-07-24T09:22:59;8.48;;;4.60;;
77350;SDS011;66420;50.246;14.320;2023-07-24T09:25:44;9.38;;;5.30;;
77350;SDS011;66420;50.246;14.320;2023-07-24T09:28:29;10.60;;;5.30;;
77350;SDS011;66420;50.246;14.320;2023-07-24T09:31:13;12.82;;;5.93;;
77350;SDS011;66420;50.246;14.320;2023-07-24T09:33:58;9.60;;;5.10;;
77350;SDS011;66420;50.246;14.320;2023-07-24T09:36:43;12.48;;;5.57;;
77350;SDS011;66420;50.246;14.320;2023-07-24T09:39:29;13.45;;;5.93;;
77350;SDS011;66420;50.246;14.320;2023-07-24T09:42:14;12.27;;;5.70;;
77350;SDS011;66420;50.246;14.320;2023-07-24T09:44:59;14.45;;;6.32;;
77350;SDS011;66420;50.246;14.320;2023-07-24T09:47:45;10.70;;;5.70;;
77350;SDS011;66420;50.246;14.320;2023-07-24T09:50:32;11.60;;;5.70;;
77350;SDS011;66420;50.246;14.320;2023-07-24T09:56:13;10.77;;;5.15;;
77350;SDS011;66420;50.246;14.320;2023-07-24T09:59:02;10.80;;;5.40;;
77350;SDS011;66420;50.246;14.320;2023-07-24T10:01:48;12.27;;;5.72;;
77350;SDS011;66420;50.246;14.320;2023-07-24T10:04:33;9.77;;;5.40;;
77350;SDS011;66420;50.246;14.320;2023-07-24T10:07:18;14.88;;;6.30;;
77350;SDS011;66420;50.246;14.320;2023-07-24T10:10:07;10.30;;;5.38;;
77350;SDS011;66420;50.246;14.320;2023-07-24T10:12:52;9.50;;;5.35;;
77350;SDS011;66420;50.246;14.320;2023-07-24T10:15:37;11.73;;;6.07;;
77350;SDS011;66420;50.246;14.320;2023-07-24T10:18:27;9.30;;;4.95;;
77350;SDS011;66420;50.246;14.320;2023-07-24T10:21:12;10.32;;;5.45;;
77350;SDS011;66420;50.246;14.320;2023-07-24T10:23:59;12.57;;;5.55;;
77350;SDS011;66420;50.246;14.320;2023-07-24T10:26:43;9.05;;;5.65;;
77350;SDS011;66420;50.246;14.320;2023-07-24T10:29:28;10.00;;;4.90;;
77350;SDS011;66420;50.246;14.320;2023-07-24T10:32:18;9.90;;;5.20;;
77350;SDS011;66420;50.246;14.320;2023-07-24T10:35:07;10.85;;;5.72;;
77350;SDS011;66420;50.246;14.320;2023-07-24T10:37:59;10.70;;;5.32;;
77350;SDS011;66420;50.246;14.320;2023-07-24T10:40:46;12.07;;;4.85;;
77350;SDS011;66420;50.246;14.320;2023-07-24T10:43:44;9.45;;;5.45;;
77350;SDS011;66420;50.246;14.320;2023-07-24T10:46:40;8.27;;;4.55;;
77350;SDS011;66420;50.246;14.320;2023-07-24T10:49:29;7.90;;;4.72;;
77350;SDS011;66420;50.246;14.320;2023-07-24T10:52:14;9.30;;;5.00;;
77350;SDS011;66420;50.246;14.320;2023-07-24T10:55:02;8.90;;;4.95;;
77350;SDS011;66420;50.246;14.320;2023-07-24T10:57:48;8.88;;;4.90;;
77350;SDS011;66420;50.246;14.320;2023-07-24T11:00:32;9.13;;;4.78;;
77350;SDS011;66420;50.246;14.320;2023-07-24T11:03:17;9.13;;;5.00;;
77350;SDS011;66420;50.246;14.320;2023-07-24T11:06:01;7.60;;;4.72;;
77350;SDS011;66420;50.246;14.320;2023-07-24T11:08:54;8.57;;;5.07;;
77350;SDS011;66420;50.246;14.320;2023-07-24T11:11:40;8.35;;;4.72;;
77350;SDS011;66420;50.246;14.320;2023-07-24T11:14:24;9.38;;;4.85;;
77350;SDS011;66420;50.246;14.320;2023-07-24T11:17:09;9.93;;;4.80;;
77350;SDS011;66420;50.246;14.320;2023-07-24T11:20:04;10.45;;;4.90;;
77350;SDS011;66420;50.246;14.320;2023-07-24T11:22:50;10.18;;;5.22;;
77350;SDS011;66420;50.246;14.320;2023-07-24T11:25:34;8.93;;;4.88;;
77350;SDS011;66420;50.246;14.320;2023-07-24T11:28:19;8.93;;;4.60;;
77350;SDS011;66420;50.246;14.320;2023-07-24T11:31:04;9.40;;;4.88;;
77350;SDS011;66420;50.246;14.320;2023-07-24T11:33:48;10.77;;;5.13;;
77350;SDS011;66420;50.246;14.320;2023-07-24T11:36:34;11.48;;;5.28;;
77350;SDS011;66420;50.246;14.320;2023-07-24T11:39:22;9.13;;;4.95;;
77350;SDS011;66420;50.246;14.320;2023-07-24T11:42:08;12.25;;;5.57;;
77350;SDS011;66420;50.246;14.320;2023-07-24T11:44:53;9.77;;;5.47;;
77350;SDS011;66420;50.246;14.320;2023-07-24T11:47:45;9.23;;;5.32;;
77350;SDS011;66420;50.246;14.320;2023-07-24T11:50:41;12.98;;;5.20;;
77350;SDS011;66420;50.246;14.320;2023-07-24T11:53:30;13.27;;;5.63;;
77350;SDS011;66420;50.246;14.320;2023-07-24T11:56:16;10.60;;;5.63;;
77350;SDS011;66420;50.246;14.320;2023-07-24T11:59:10;9.13;;;5.50;;
77350;SDS011;66420;50.246;14.320;2023-07-24T12:01:56;13.18;;;5.57;;
77350;SDS011;66420;50.246;14.320;2023-07-24T12:04:41;13.75;;;6.00;;
77350;SDS011;66420;50.246;14.320;2023-07-24T12:07:32;11.60;;;5.95;;
77350;SDS011;66420;50.246;14.320;2023-07-24T12:10:25;11.32;;;5.80;;
77350;SDS011;66420;50.246;14.320;2023-07-24T12:13:13;10.85;;;5.65;;
77350;SDS011;66420;50.246;14.320;2023-07-24T12:15:58;12.43;;;5.82;;
77350;SDS011;66420;50.246;14.320;2023-07-24T12:18:42;11.68;;;5.68;;
77350;SDS011;66420;50.246;14.320;2023-07-24T12:21:27;12.77;;;5.38;;
77350;SDS011;66420;50.246;14.320;2023-07-24T12:24:12;12.43;;;5.38;;
77350;SDS011;66420;50.246;14.320;2023-07-24T12:26:56;10.85;;;5.68;;
77350;SDS011;66420;50.246;14.320;2023-07-24T12:29:41;13.32;;;5.75;;
77350;SDS011;66420;50.246;14.320;2023-07-24T12:32:26;10.30;;;5.40;;
77350;SDS011;66420;50.246;14.320;2023-07-24T12:35:11;10.95;;;5.25;;
77350;SDS011;66420;50.246;14.320;2023-07-24T12:37:56;10.73;;;5.63;;
77350;SDS011;66420;50.246;14.320;2023-07-24T12:40:40;11.70;;;6.07;;
77350;SDS011;66420;50.246;14.320;2023-07-24T12:43:25;10.45;;;5.47;;
77350;SDS011;66420;50.246;14.320;2023-07-24T12:46:10;12.23;;;6.45;;
77350;SDS011;66420;50.246;14.320;2023-07-24T12:48:54;11.73;;;6.38;;
77350;SDS011;66420;50.246;14.320;2023-07-24T12:51:39;13.90;;;6.22;;
77350;SDS011;66420;50.246;14.320;2023-07-24T12:54:23;10.90;;;6.13;;
77350;SDS011;66420;50.246;14.320;2023-07-24T12:57:08;11.18;;;5.57;;
77350;SDS011;66420;50.246;14.320;2023-07-24T12:59:52;8.68;;;5.65;;
77350;SDS011;66420;50.246;14.320;2023-07-24T13:02:37;11.55;;;6.22;;
77350;SDS011;66420;50.246;14.320;2023-07-24T13:05:22;11.05;;;6.00;;
77350;SDS011;66420;50.246;14.320;2023-07-24T13:08:07;10.77;;;5.68;;
77350;SDS011;66420;50.246;14.320;2023-07-24T13:10:52;13.05;;;6.10;;
77350;SDS011;66420;50.246;14.320;2023-07-24T13:13:37;12.88;;;6.15;;
77350;SDS011;66420;50.246;14.320;2023-07-24T13:16:22;12.25;;;6.05;;
77350;SDS011;66420;50.246;14.320;2023-07-24T13:19:07;10.90;;;5.95;;
77350;SDS011;66420;50.246;14.320;2023-07-24T13:21:51;14.57;;;6.20;;
77350;SDS011;66420;50.246;14.320;2023-07-24T13:24:36;10.32;;;5.63;;
77350;SDS011;66420;50.246;14.320;2023-07-24T13:27:21;11.10;;;6.40;;
77350;SDS011;66420;50.246;14.320;2023-07-24T13:30:05;10.60;;;5.97;;
77350;SDS011;66420;50.246;14.320;2023-07-24T13:32:50;12.15;;;6.32;;
77350;SDS011;66420;50.246;14.320;2023-07-24T13:35:35;13.45;;;6.13;;
77350;SDS011;66420;50.246;14.320;2023-07-24T13:38:19;11.50;;;6.20;;
77350;SDS011;66420;50.246;14.320;2023-07-24T13:41:05;9.38;;;5.95;;
77350;SDS011;66420;50.246;14.320;2023-07-24T13:43:50;9.50;;;5.22;;
77350;SDS011;66420;50.246;14.320;2023-07-24T13:46:34;8.65;;;3.60;;
77350;SDS011;66420;50.246;14.320;2023-07-24T13:49:20;10.38;;;4.00;;
77350;SDS011;66420;50.246;14.320;2023-07-24T13:52:05;11.38;;;4.32;;
77350;SDS011;66420;50.246;14.320;2023-07-24T13:54:50;9.85;;;4.30;;
77350;SDS011;66420;50.246;14.320;2023-07-24T13:57:34;14.70;;;4.50;;
77350;SDS011;66420;50.246;14.320;2023-07-24T14:00:19;12.23;;;4.43;;
77350;SDS011;66420;50.246;14.320;2023-07-24T14:03:04;14.55;;;4.45;;
77350;SDS011;66420;50.246;14.320;2023-07-24T14:05:49;11.13;;;4.68;;
77350;SDS011;66420;50.246;14.320;2023-07-24T14:08:33;12.43;;;4.65;;
77350;SDS011;66420;50.246;14.320;2023-07-24T14:11:18;10.18;;;4.88;;
77350;SDS011;66420;50.246;14.320;2023-07-24T14:14:03;12.32;;;4.35;;
77350;SDS011;66420;50.246;14.320;2023-07-24T14:16:48;9.73;;;3.85;;
77350;SDS011;66420;50.246;14.320;2023-07-24T14:19:32;11.43;;;4.60;;
77350;SDS011;66420;50.246;14.320;2023-07-24T14:22:18;6.85;;;3.75;;
77350;SDS011;66420;50.246;14.320;2023-07-24T14:25:03;7.85;;;3.50;;
77350;SDS011;66420;50.246;14.320;2023-07-24T14:27:48;8.50;;;3.75;;
77350;SDS011;66420;50.246;14.320;2023-07-24T14:30:33;6.65;;;3.65;;
77350;SDS011;66420;50.246;14.320;2023-07-24T14:33:18;7.13;;;3.55;;
77350;SDS011;66420;50.246;14.320;2023-07-24T14:36:02;5.72;;;3.20;;
77350;SDS011;66420;50.246;14.320;2023-07-24T14:38:47;5.82;;;3.22;;
77350;SDS011;66420;50.246;14.320;2023-07-24T14:41:32;7.25;;;3.45;;
77350;SDS011;66420;50.246;14.320;2023-07-24T14:44:17;4.63;;;2.80;;
77350;SDS011;66420;50.246;14.320;2023-07-24T14:47:02;8.00;;;3.10;;
77350;SDS011;66420;50.246;14.320;2023-07-24T14:49:47;5.15;;;2.88;;
77350;SDS011;66420;50.246;14.320;2023-07-24T14:52:31;6.25;;;3.28;;
77350;SDS011;66420;50.246;14.320;2023-07-24T14:55:16;9.18;;;3.20;;
77350;SDS011;66420;50.246;14.320;2023-07-24T14:58:01;7.32;;;3.10;;
77350;SDS011;66420;50.246;14.320;2023-07-24T15:00:46;7.55;;;3.25;;
77350;SDS011;66420;50.246;14.320;2023-07-24T15:03:31;6.13;;;3.45;;
77350;SDS011;66420;50.246;14.320;2023-07-24T15:06:15;9.98;;;3.40;;
77350;SDS011;66420;50.246;14.320;2023-07-24T15:09:00;8.98;;;3.35;;
77350;SDS011;66420;50.246;14.320;2023-07-24T15:11:45;9.25;;;3.38;;
77350;SDS011;66420;50.246;14.320;2023-07-24T15:14:29;11.80;;;3.55;;
77350;SDS011;66420;50.246;14.320;2023-07-24T15:17:15;7.78;;;3.35;;
77350;SDS011;66420;50.246;14.320;2023-07-24T15:19:59;6.78;;;3.58;;
77350;SDS011;66420;50.246;14.320;2023-07-24T15:22:44;7.63;;;3.47;;
77350;SDS011;66420;50.246;14.320;2023-07-24T15:25:29;7.72;;;3.38;;
77350;SDS011;66420;50.246;14.320;2023-07-24T15:28:14;7.32;;;3.58;;
77350;SDS011;66420;50.246;14.320;2023-07-24T15:30:58;6.57;;;3.67;;
77350;SDS011;66420;50.246;14.320;2023-07-24T15:33:43;6.72;;;3.40;;
77350;SDS011;66420;50.246;14.320;2023-07-24T15:36:28;6.95;;;3.63;;
77350;SDS011;66420;50.246;14.320;2023-07-24T15:39:12;8.90;;;3.28;;
77350;SDS011;66420;50.246;14.320;2023-07-24T15:41:57;7.40;;;3.70;;
77350;SDS011;66420;50.246;14.320;2023-07-24T15:44:42;6.90;;;3.92;;
77350;SDS011;66420;50.246;14.320;2023-07-24T15:47:27;6.53;;;3.58;;
77350;SDS011;66420;50.246;14.320;2023-07-24T15:50:13;7.78;;;4.30;;
77350;SDS011;66420;50.246;14.320;2023-07-24T15:52:58;7.55;;;3.75;;
77350;SDS011;66420;50.246;14.320;2023-07-24T15:55:43;7.40;;;4.05;;
77350;SDS011;66420;50.246;14.320;2023-07-24T15:58:27;6.82;;;3.78;;
77350;SDS011;66420;50.246;14.320;2023-07-24T16:01:12;7.82;;;3.70;;
77350;SDS011;66420;50.246;14.320;2023-07-24T16:03:57;7.10;;;3.80;;
77350;SDS011;66420;50.246;14.320;2023-07-24T16:06:42;6.72;;;3.67;;
77350;SDS011;66420;50.246;14.320;2023-07-24T16:09:26;6.63;;;3.80;;
77350;SDS011;66420;50.246;14.320;2023-07-24T16:12:11;7.10;;;3.42;;
77350;SDS011;66420;50.246;14.320;2023-07-24T16:14:55;11.05;;;3.70;;
77350;SDS011;66420;50.246;14.320;2023-07-24T16:17:40;9.95;;;3.97;;
77350;SDS011;66420;50.246;14.320;2023-07-24T16:20:25;6.47;;;3.58;;